Pellegrini, Argentina
Current Conditions -  °F | °C
As of 11:00 PM on Saturday 25 Oct 2014 (Local Time) from SAOC Reporting Station
Clear Clear  
Wind Chill: 79°   Ceiling: Unl
Heat Index: 79°   Visibility: 6mi
Dew Point: 50°   Wind: 17mph
Humidity: 36%   Direction: 340°NNW
Pressure: 29.8"   Gusts: 32mph
Location:  36.27°S, 63.15°W
Report Text: SAOC 260200Z 34015G28KT CAVOK 26/10 Q1009
Loading
Personal Weather Stations






























Interactive Weather Map New forecast layout! Learn more

10-Day Weather Forecast

Advertisements
Track Severe Weather on mobile